Espaço - Ciências - Fenômenos Naturais
Meteógrafos Informações Meteorológicas em tempo real

Aeroporto de Congonhas

Histórico do Tempo
Temperatura atual: 17 graus 62 F    Umidade relativa: 88 %
Velocidade do vento: 02 nós 3 Km/h    Direção: 120 graus ESE
Ajuste do altímetro ..: 1019 HPA
Visibilidade: Regular    Tempo presente: Não Disponível

Observação

Data Hora BRTTempo°CUmidadePressãoVentoVisib.
22/09 - 01:55   Não Disponível 17° 88% 1019 Este-sudeste/3 km/h 6000
22/09 - 00:56   Não Disponível 18° 82% 1020 Este-nordeste/3 km/h 7000
21/09 - 23:55   Quase sem nuvens 18° 82% 1020 /3 km/h 8000
21/09 - 22:56   Névoa úmida 18° 88% 1020 Este-nordeste/3 km/h 5000
21/09 - 21:55   Céu Encoberto 18° 88% 1020 Sudeste/9 km/h 6000
21/09 - 20:55   Parcialmente Nublado 18° 88% 1019 Sul-sudeste/9 km/h 7000
21/09 - 19:55   Parcialmente Nublado 18° 88% 1019 Sul-sudeste/9 km/h 7000
21/09 - 18:55   Não Disponível 20° 82% 1018 Sul-sudeste/12 km/h OK
21/09 - 17:55   Não Disponível 20° 82% 1018 Sul-sudeste/12 km/h OK
21/09 - 16:55   Parcialmente Nublado 24° 65% 1017 Sul-sudoeste/19 km/h OK
21/09 - 15:55   Parcialmente Nublado 25° 50% 1017 Oeste-noroeste/12 km/h OK
21/09 - 14:55   Parcialmente Nublado 26° 44% 1017 Oeste-noroeste/18 km/h OK
21/09 - 13:55   Poucas nuvens esparsas 25° 53% 1018 Oeste-noroeste/14 km/h 9999
21/09 - 12:55   Poucas nuvens esparsas 23° 64% 1018 Oeste/10 km/h 9999
21/09 - 11:55   Poucas nuvens esparsas 23° 64% 1018 Oeste/10 km/h 9999
21/09 - 10:55   Parcialmente Nublado 23° 64% 1019 Sudoeste/7 km/h OK
21/09 - 09:55   Parcialmente Nublado 21° 77% 1020 Noroeste/9 km/h OK
21/09 - 08:55   Parcialmente Nublado 19° 82% 1019 /3 km/h 8000
21/09 - 07:55   Muitas Nuvens 18° 88% 1018 Oeste/5 km/h 6000
21/09 - 06:55   Névoa úmida 18° 88% 1017 Este-sudeste/1 km/h 4500
21/09 - 05:55   Céu Encoberto 18° 88% 1017 Sul-sudeste/1 km/h 6000
21/09 - 04:55   Parcialmente Nublado 18° 88% 1016 Sudeste/5 km/h 7000
21/09 - 03:55   Parcialmente Nublado 18° 88% 1016 Leste/5 km/h 9000
21/09 - 02:55   Céu Encoberto 18° 88% 1017 Leste/5 km/h 9000


Apolo11.com - Todos os direitos reservados - 2000 - 2018
Política de Privacidade   |     Termo de Uso e Licenciamento   |  -   Entre em Contato

"É necessário sempre esperar quando se está desesperado e duvidar enquando se espera" - Flaubert